Latest Weather Observations for Charleville

IDQ60801

Issued at 7:35 pm EST Thursday 23 October 2014 (issued every 30 minutes, with the page automatically refreshed every 10 minutes)

About weather observations | Map of weather stations | Latest weather observations for QLD | Other Formats
Station Details ID: 044021 Name: CHARLEVILLE AERO Lat: -26.41 Lon: 146.26 Height: 301.6 m
Data from the previous 72 hours. | See also: Recent months at Charleville
Date/Time
EST
Temp
°C
App
Temp
°C
Dew
Point
Rel
Hum
%
Delta-T
°C
Wind Press
QNH
hPa
Press
MSL
hPa
Rain
since 9 am
mm
Dir
 
Spd
km/h
Gust
km/h
Spd
kts
Gust
kts
23/07:30pm 29.6 26.7 6.3 23 12.5 ENE 11 13 6 7 1016.9 - -
23/07:00pm 29.7 26.3 6.1 22 12.6 NE 13 17 7 9 1016.4 - -
23/06:30pm 31.1 28.4 5.7 20 13.6 ESE 9 9 5 5 1016.0 - -
23/06:00pm 32.3 29.3 3.9 16 14.9 SSE 9 13 5 7 1015.7 1014.7 -
23/05:30pm 32.7 30.0 3.8 16 15.2 SE 7 13 4 7 1015.5 - -
23/05:00pm 34.1 30.9 2.8 14 16.3 E 9 13 5 7 1015.2 - -
23/04:30pm 33.4 31.6 3.4 15 15.7 W 2 9 1 5 1015.2 - -
23/04:00pm 33.7 31.3 5.1 16 15.4 SE 7 17 4 9 1015.2 - -
23/03:30pm 33.5 29.6 5.3 17 15.2 NE 15 19 8 10 1015.4 - -
23/03:00pm 32.4 29.4 4.2 17 14.9 ESE 9 13 5 7 1015.7 1014.7 0.0
23/02:30pm 32.5 29.4 3.8 16 15.1 WNW 9 15 5 8 1016.1 - 0.0
23/02:00pm 33.1 29.0 4.4 16 15.3 NW 15 20 8 11 1016.4 - 0.0
23/01:46pm 32.7 28.0 5.1 17 14.8 NW 19 - 10 - - 1015.7 -
23/01:30pm 32.8 29.3 5.6 18 14.7 WNW 13 22 7 12 1017.0 - 0.0
23/01:00pm 32.5 27.3 5.5 18 14.6 NNE 22 30 12 16 1017.5 - 0.0
23/12:30pm 31.0 27.0 8.1 24 12.8 NW 19 30 10 16 1018.3 - 0.0
23/12:00pm - - - - - - - - - - - 1017.7 -
23/11:30am - - - - - NNW 17 30 9 16 - - 0.0
23/11:00am 30.2 26.3 8.5 25 12.1 NW 19 30 10 16 1019.6 - 0.0
23/10:30am 29.2 24.8 8.9 28 11.4 NW 22 30 12 16 1020.1 - 0.0
23/10:00am 29.0 24.9 8.8 28 11.3 NNW 20 30 11 16 1020.4 - 0.0
23/09:30am 27.5 23.6 9.4 32 10.1 N 20 32 11 17 1020.5 - 0.0
23/09:00am 26.6 21.9 9.2 33 9.6 N 24 32 13 17 1020.5 1019.6 0.0
23/08:30am 26.1 21.9 9.8 35 9.1 N 22 32 12 17 1020.4 - 0.0
23/08:00am 24.6 19.3 10.0 39 8.1 N 28 35 15 19 1020.5 - 0.0
23/07:30am 24.4 19.8 9.8 39 8.1 N 24 32 13 17 1020.1 - 0.0
23/06:30am 22.6 18.5 8.6 40 7.5 N 20 28 11 15 1019.8 - 0.0
23/06:00am 22.0 17.4 8.2 41 7.3 NNE 22 28 12 15 1019.4 1018.4 0.0
23/05:30am 20.8 17.4 7.6 42 6.9 NNE 15 19 8 10 1019.3 - 0.0
23/05:00am 20.1 17.1 7.5 44 6.6 NNE 13 15 7 8 1018.8 - 0.0
23/04:30am 19.8 17.2 7.6 45 6.3 NNE 11 15 6 8 1018.4 - 0.0
23/04:00am 19.4 17.2 8.0 47 6.0 NNE 9 9 5 5 1018.0 - 0.0
23/03:30am 18.9 17.7 8.1 49 5.6 NNE 4 9 2 5 1018.0 - 0.0
23/03:08am 19.1 18.6 8.0 48 5.8 CALM 0 6 0 3 1018.2 - 0.0
23/03:00am 19.7 18.2 8.6 48 5.9 NNE 6 9 3 5 1018.3 1017.3 0.0
23/02:49am 19.8 17.7 8.2 47 6.1 NE 9 11 5 6 1018.3 - 0.0
23/02:30am 19.7 18.0 8.2 47 6.0 NNE 7 13 4 7 1018.6 - 0.0
23/02:00am 19.6 19.1 7.9 46 6.1 ENE 0 0 0 0 1018.7 - 0.0
23/01:30am 20.7 20.3 8.1 44 6.7 CALM 0 0 0 0 1018.9 - 0.0
23/01:00am 21.7 20.6 9.8 46 6.5 ENE 6 7 3 4 1019.2 - 0.0
23/12:30am 22.7 22.4 8.7 40 7.6 CALM 0 0 0 0 1019.6 - 0.0
23/12:00am 24.0 22.2 8.1 36 8.5 W 7 11 4 6 1019.9 1018.9 0.0
 
Date/Time
EST
Temp
°C
App
Temp
°C
Dew
Point
Rel
Hum
%
Delta-T
°C
Wind Press
QNH
hPa
Press
MSL
hPa
Rain
since 9 am
mm
Dir
 
Spd
km/h
Gust
km/h
Spd
kts
Gust
kts
22/11:30pm 25.9 24.0 7.5 31 9.9 S 7 9 4 5 1020.2 - 0.0
22/11:00pm 26.7 23.0 6.3 27 10.8 S 15 24 8 13 1020.5 - 0.0
22/10:30pm 25.8 23.8 8.7 34 9.4 W 9 15 5 8 1020.6 - 0.0
22/10:00pm 25.9 24.7 9.4 35 9.2 NW 6 9 3 5 1020.3 - 0.0
22/09:30pm 26.4 23.7 7.3 29 10.3 SSW 11 17 6 9 1020.4 - 0.0
22/09:00pm 26.7 24.7 8.5 31 10.0 NNW 9 11 5 6 1019.7 1018.7 0.0
22/08:30pm 26.4 24.4 7.1 29 10.3 SE 7 13 4 7 1019.7 - 0.0
22/08:00pm 27.8 24.5 6.3 25 11.4 W 13 22 7 12 1019.2 - 0.0
22/07:30pm 29.1 26.2 4.5 21 12.8 S 9 17 5 9 1019.0 - 0.0
22/07:00pm 29.1 26.3 5.2 22 12.6 ENE 9 11 5 6 1018.4 - 0.0
22/06:30pm 30.0 25.9 4.3 19 13.4 ENE 15 19 8 10 1018.3 - 0.0
22/06:00pm 31.2 28.3 4.5 18 14.0 SSE 9 15 5 8 1017.8 1016.9 0.0
22/05:30pm 32.0 27.4 3.8 17 14.7 SSE 17 26 9 14 1017.6 - 0.0
22/05:00pm 31.9 28.1 3.7 17 14.7 SE 13 20 7 11 1017.4 - 0.0
22/04:30pm 31.9 26.9 3.4 16 14.8 SE 19 28 10 15 1017.4 - 0.0
22/04:00pm 32.6 27.5 3.3 15 15.2 SSE 19 24 10 13 1017.7 - 0.0
22/03:30pm 32.2 27.9 3.1 16 15.1 SSE 15 24 8 13 1017.9 - 0.0
22/03:00pm 31.7 28.0 4.7 18 14.3 SSE 13 30 7 16 1018.4 1017.4 0.0
22/02:30pm 32.0 29.8 5.5 19 14.2 W 6 13 3 7 1018.8 - 0.0
22/02:00pm 31.8 29.1 5.7 19 14.1 NNW 9 17 5 9 1019.5 - 0.0
22/01:30pm 31.3 27.9 5.8 20 13.7 W 13 22 7 12 1019.9 - 0.0
22/01:00pm 31.3 28.3 7.7 23 13.1 NNW 13 20 7 11 1020.3 - 0.0
22/12:30pm 30.4 27.4 7.7 24 12.5 WSW 13 19 7 10 1020.8 - 0.0
22/12:00pm 29.6 25.9 8.1 26 11.9 W 17 24 9 13 1021.3 1020.4 0.0
22/11:30am 29.3 25.9 9.3 28 11.3 NNW 17 26 9 14 1021.7 - 0.0
22/11:00am 28.6 25.1 8.6 28 11.1 NNW 17 26 9 14 1022.2 - 0.0
22/10:30am 27.7 24.2 8.6 30 10.6 NNW 17 30 9 16 1022.6 - 0.0
22/10:00am 26.4 23.6 8.7 32 9.7 NNW 13 20 7 11 1023.1 - 0.0
22/09:30am 25.1 22.0 8.9 35 8.9 N 15 19 8 10 1023.4 - 0.0
22/09:00am 25.0 21.3 9.5 37 8.6 N 19 26 10 14 1023.5 1022.6 0.0
22/08:30am 23.4 19.2 9.6 41 7.6 N 22 26 12 14 1023.4 - 0.0
22/08:00am 22.1 17.2 8.5 41 7.3 N 24 32 13 17 1023.3 - 0.0
22/07:30am 21.3 16.2 7.7 41 7.2 N 24 28 13 15 1023.1 - 0.0
22/07:00am 20.4 16.0 6.4 40 7.1 N 19 26 10 14 1022.7 - 0.0
22/06:30am 19.5 15.5 6.5 42 6.6 N 17 20 9 11 1022.3 - 0.0
22/06:00am 19.0 15.3 6.4 43 6.3 N 15 19 8 10 1022.0 1021.0 0.0
22/05:30am 18.4 15.2 7.0 47 5.8 NNE 13 17 7 9 1021.9 - 0.0
22/05:00am 19.2 16.4 6.8 44 6.3 NNE 11 15 6 8 1021.2 - 0.0
22/04:30am 19.7 16.1 6.7 42 6.6 NNE 15 17 8 9 1020.8 - 0.0
22/04:00am 20.1 16.4 6.4 41 7.0 NNE 15 19 8 10 1020.7 - 0.0
22/03:30am 19.0 16.6 7.0 45 6.1 NNE 9 13 5 7 1020.4 - 0.0
22/03:00am 19.3 16.9 7.1 45 6.2 NE 9 11 5 6 1020.4 1019.4 0.0
22/02:30am 19.8 17.9 7.4 44 6.4 NE 7 9 4 5 1020.4 - 0.0
22/02:00am 20.6 18.2 7.1 41 7.0 NE 9 9 5 5 1020.6 - 0.0
22/01:30am 21.2 18.8 7.0 39 7.4 NNE 9 11 5 6 1020.9 - 0.0
22/01:00am 21.9 19.7 7.7 40 7.5 N 9 9 5 5 1021.2 - 0.0
22/12:30am 23.0 20.1 6.5 34 8.6 NE 11 15 6 8 1021.5 - 0.0
22/12:00am 23.6 20.3 6.5 33 8.9 NNE 13 15 7 8 1021.9 1020.9 0.0
 
Date/Time
EST
Temp
°C
App
Temp
°C
Dew
Point
Rel
Hum
%
Delta-T
°C
Wind Press
QNH
hPa
Press
MSL
hPa
Rain
since 9 am
mm
Dir
 
Spd
km/h
Gust
km/h
Spd
kts
Gust
kts
21/11:30pm 24.1 21.6 6.6 32 9.2 NE 9 13 5 7 1022.0 - 0.0
21/11:00pm 24.7 22.2 6.4 31 9.6 NE 9 13 5 7 1022.2 - 0.0
21/10:30pm 25.6 22.6 5.9 28 10.3 ENE 11 15 6 8 1022.3 - 0.0
21/10:00pm 25.9 23.2 5.4 27 10.6 ENE 9 15 5 8 1022.3 - 0.0
21/09:30pm 26.3 22.7 4.9 25 11.0 E 13 15 7 8 1022.2 - 0.0
21/09:00pm 26.9 22.8 4.4 23 11.5 E 15 19 8 10 1022.0 1021.0 0.0
21/08:30pm 26.8 23.1 4.5 24 11.4 E 13 15 7 8 1021.7 - 0.0
21/08:00pm 27.0 23.3 4.5 23 11.6 ESE 13 15 7 8 1021.4 - 0.0
21/07:30pm 27.2 23.9 4.4 23 11.7 E 11 17 6 9 1021.0 - 0.0
21/07:00pm 28.5 25.6 4.6 21 12.4 E 9 11 5 6 1020.7 - 0.0
21/06:30pm 30.3 26.3 2.7 17 14.0 ESE 13 17 7 9 1020.3 - 0.0
21/06:00pm 31.3 26.4 2.2 15 14.7 ESE 17 22 9 12 1020.0 1019.0 0.0
21/05:30pm 31.9 25.7 2.1 15 15.1 SE 24 33 13 18 1019.7 - 0.0
21/05:00pm 32.0 25.5 2.6 15 15.1 ESE 26 33 14 18 1019.5 - 0.0
21/04:30pm 32.8 26.8 3.3 15 15.4 SE 24 32 13 17 1019.3 - 0.0
21/04:00pm 33.1 28.4 2.9 15 15.7 SE 17 26 9 14 1019.1 - 0.0
21/03:30pm 32.9 27.6 2.8 15 15.6 SE 20 30 11 16 1019.4 - 0.0
21/03:00pm 33.2 28.2 4.5 16 15.2 SSE 20 30 11 16 1019.6 1018.6 0.0
21/02:30pm 32.8 29.1 4.3 16 15.1 E 13 28 7 15 1020.0 - 0.0
21/02:00pm 32.3 28.2 4.4 17 14.8 ESE 15 26 8 14 1020.6 - 0.0
21/01:30pm 31.6 27.9 4.7 18 14.2 NNE 13 24 7 13 1021.2 - 0.0
21/01:00pm 31.3 25.8 5.9 20 13.7 E 24 32 13 17 1021.8 - 0.0
21/12:30pm 31.0 27.5 5.5 20 13.6 NE 13 26 7 14 1022.5 - 0.0
21/12:00pm 29.2 26.6 6.1 23 12.3 N 9 15 5 8 1023.2 1022.2 0.0
21/11:30am 29.4 25.0 4.9 21 12.9 N 17 26 9 14 1023.6 - 0.0
21/11:00am 28.6 24.0 5.8 23 12.1 NNE 19 26 10 14 1024.1 - 0.0
21/10:30am 27.6 23.5 6.0 25 11.4 NNE 17 24 9 13 1024.6 - 0.0
21/10:00am 26.7 22.1 6.3 27 10.8 NNE 20 32 11 17 1025.2 - 0.0
21/09:30am 25.8 20.4 6.5 29 10.2 NNE 24 33 13 18 1025.3 - 0.0
21/09:00am 24.9 19.9 8.1 34 9.0 NNE 24 32 13 17 1025.3 1024.3 0.0
21/08:30am 24.5 20.0 8.4 36 8.7 NE 22 33 12 18 1025.0 - 0.0
21/08:00am 23.6 18.0 8.7 38 8.1 NNE 28 35 15 19 1024.7 - 0.0
21/07:30am 22.5 16.6 8.9 42 7.4 NNE 30 41 16 22 1024.4 - 0.0
21/07:00am 21.7 16.8 8.5 42 7.1 NNE 24 32 13 17 1024.0 - 0.0
21/06:30am 20.6 15.9 7.6 43 6.8 NNE 22 33 12 18 1023.4 - 0.0
21/06:00am 19.8 15.8 6.7 42 6.7 NNE 17 22 9 12 1022.9 1021.9 0.0
21/05:30am 18.8 15.6 7.0 46 6.0 NNE 13 17 7 9 1022.2 - 0.0
21/05:00am 18.4 15.7 7.5 49 5.6 NNE 11 13 6 7 1021.3 - 0.0
21/04:30am 17.2 16.3 7.6 53 4.9 NNE 2 6 1 3 1020.9 - 0.0
21/04:00am 17.3 15.6 7.5 52 5.0 NNE 6 7 3 4 1020.6 - 0.0
21/03:30am 17.6 15.6 7.3 51 5.3 NE 7 7 4 4 1020.5 - 0.0
21/03:00am 17.8 15.8 7.0 49 5.5 NE 7 9 4 5 1020.5 1019.6 0.0
21/02:30am 18.3 16.4 7.4 49 5.6 NNE 7 9 4 5 1020.5 - 0.0
21/02:00am 18.9 17.0 7.5 47 5.9 NE 7 9 4 5 1020.6 - 0.0
21/01:30am 19.8 17.9 7.6 45 6.3 ENE 7 9 4 5 1020.8 - 0.0
21/01:00am 20.9 18.9 6.9 40 7.2 ENE 7 7 4 4 1020.9 - 0.0
21/12:30am 22.6 20.3 7.4 37 8.0 NE 9 11 5 6 1021.0 - 0.0
21/12:00am 23.5 21.5 6.9 34 8.7 NE 7 11 4 6 1021.2 1020.3 0.0
 
Date/Time
EST
Temp
°C
App
Temp
°C
Dew
Point
Rel
Hum
%
Delta-T
°C
Wind Press
QNH
hPa
Press
MSL
hPa
Rain
since 9 am
mm
Dir
 
Spd
km/h
Gust
km/h
Spd
kts
Gust
kts
20/11:30pm 24.2 21.1 5.5 30 9.6 E 11 13 6 7 1021.3 - 0.0
20/11:00pm 24.5 21.8 5.6 29 9.7 ENE 9 11 5 6 1021.3 - 0.0
20/10:30pm 24.5 21.4 5.4 29 9.8 E 11 11 6 6 1021.3 - 0.0
20/10:00pm 24.9 22.1 5.1 28 10.1 E 9 11 5 6 1021.2 - 0.0
20/09:30pm 25.3 22.6 5.4 27 10.3 E 9 11 5 6 1021.0 - 0.0
20/09:00pm 26.2 23.4 5.0 25 10.9 E 9 11 5 6 1020.8 1019.9 0.0
20/08:30pm 27.1 23.3 4.1 23 11.7 E 13 15 7 8 1020.5 - 0.0
20/08:00pm 26.9 23.5 4.2 23 11.6 E 11 13 6 7 1020.3 - 0.0

Other Formats:

Comma delimited format used in spreadsheet applications
http://www.bom.gov.au/fwo/IDQ60801/IDQ60801.94510.axf

JavaScript Object Notation format (JSON) in row-major order
http://www.bom.gov.au/fwo/IDQ60801/IDQ60801.94510.json